Аэропорт: Ульяновск-Восточный. Ульяновск

ICAO: UWLW

METAR:
2021-04-21 21:00:00
UWLW 212100Z 17007MPS 8000 OVC012 03/03 Q1021 R20/290152 NOSIG RMK QFE760
METAR:
2021-04-21 20:00:00
TAF UWLW 212000Z 2121/2221 17006G12MPS 8000 BKN016 TX12/2210Z TN02/2203Z TEMPO 2121/2203 15007G14MPS 3100 -RASN BKN011